Time,TemperatureC,DewpointC,PressurehPa,WindDirection,WindDirectionDegrees,WindSpeedKMH,WindSpeedGustKMH,Humidity,HourlyPrecipMM,Conditions,Clouds,dailyrainMM,SolarRadiationWatts/m^2,UVIndex,SoftwareType,DateUTC
2021-09-28 00:04:50,23.3,20.4,1011.6,North,360,0,0,83.6,0.0,,,0.0,,,n/a,2021-09-27T22:04:50Z
2021-09-28 00:09:50,23.3,20.2,1011.6,North,360,0,0,83,0.0,,,0.0,,,n/a,2021-09-27T22:09:50Z
2021-09-28 00:14:59,23.2,20.1,1011.5,North,360,0,0,82.8,0.0,,,0.0,,,n/a,2021-09-27T22:14:59Z
2021-09-28 00:19:56,23.2,19.9,1011.5,North,360,0,0,81.8,0.0,,,0.0,,,n/a,2021-09-27T22:19:56Z
2021-09-28 00:24:56,23.1,19.4,1011.5,North,360,0,0,79.6,0.0,,,0.0,,,n/a,2021-09-27T22:24:56Z
2021-09-28 00:29:53,23.1,19,1011.6,North,5,0,0,77.7,0.0,,,0.0,,,n/a,2021-09-27T22:29:53Z
2021-09-28 00:34:59,23.2,18.8,1011.6,North,5,0,0,76.4,0.0,,,0.0,,,n/a,2021-09-27T22:34:59Z
2021-09-28 00:39:52,23.3,18.8,1011.5,North,360,0,0,75.6,0.0,,,0.0,,,n/a,2021-09-27T22:39:52Z
2021-09-28 00:44:53,23.3,18.5,1011.5,North,360,0,0,74.3,0.0,,,0.0,,,n/a,2021-09-27T22:44:53Z
2021-09-28 00:49:50,23.3,18.5,1011.6,North,360,0,0,74,0.0,,,0.0,,,n/a,2021-09-27T22:49:50Z
2021-09-28 00:54:51,23.3,18.3,1011.6,North,360,0,0,73.4,0.0,,,0.0,,,n/a,2021-09-27T22:54:51Z
2021-09-28 00:59:59,23.3,18.2,1011.6,North,360,0,0,73,0.0,,,0.0,,,n/a,2021-09-27T22:59:59Z
2021-09-28 01:04:48,23.3,18.2,1011.7,NNW,348,0,0,73,0.0,,,0.0,,,n/a,2021-09-27T23:04:48Z
2021-09-28 01:09:53,23.3,18.2,1011.7,NNW,348,0,0,72.8,0.0,,,0.0,,,n/a,2021-09-27T23:09:53Z
2021-09-28 01:14:53,23.4,18.3,1011.8,North,360,0,0,73,0.0,,,0.0,,,n/a,2021-09-27T23:14:53Z
2021-09-28 01:19:50,23.4,18.4,1011.8,North,355,0,0,73.4,0.0,,,0.0,,,n/a,2021-09-27T23:19:50Z
2021-09-28 01:24:51,23.5,18.6,1011.8,North,355,0,0,74,0.0,,,0.0,,,n/a,2021-09-27T23:24:51Z
2021-09-28 01:29:59,23.6,18.7,1011.8,North,355,0,0,74,0.0,,,0.0,,,n/a,2021-09-27T23:29:59Z
2021-09-28 01:34:53,23.6,18.7,1011.8,North,355,0,0,74,0.0,,,0.0,,,n/a,2021-09-27T23:34:53Z
2021-09-28 01:39:57,23.6,18.7,1011.7,North,355,0,0,74,0.0,,,0.0,,,n/a,2021-09-27T23:39:57Z
2021-09-28 01:44:57,23.6,18.7,1011.8,NW,312,0,0,74,0.0,,,0.0,,,n/a,2021-09-27T23:44:57Z
2021-09-28 01:49:55,23.6,18.7,1011.8,NW,311,0,0,74,0.0,,,0.0,,,n/a,2021-09-27T23:49:55Z
2021-09-28 01:54:55,23.7,18.7,1011.8,WNW,300,0,0,73.8,0.0,,,0.0,,,n/a,2021-09-27T23:54:55Z
2021-09-28 01:59:53,23.7,18.4,1011.9,North,11,0,0,72.3,0.0,,,0.0,,,n/a,2021-09-27T23:59:53Z
2021-09-28 02:04:53,23.8,18,1011.8,NNE,16,0,0,70,0.0,,,0.0,,,n/a,2021-09-28T00:04:53Z
2021-09-28 02:09:59,23.8,17.7,1011.8,WNW,290,5.4,11.6,68.6,0.0,,,0.0,,,n/a,2021-09-28T00:09:59Z
2021-09-28 02:14:57,23.8,17.8,1011.8,WNW,294,13.9,16.1,69.1,0.0,,,0.0,,,n/a,2021-09-28T00:14:57Z
2021-09-28 02:19:56,23.7,18,1011.8,WNW,300,10.9,14.5,70.3,0.0,,,0.0,,,n/a,2021-09-28T00:19:56Z
2021-09-28 02:24:56,23.6,18.1,1011.8,NW,314,12.3,11.3,71.6,0.0,,,0.0,,,n/a,2021-09-28T00:24:56Z
2021-09-28 02:29:54,23.4,18.3,1011.7,WNW,294,6,14.5,72.9,0.0,,,0.0,,,n/a,2021-09-28T00:29:54Z
2021-09-28 02:34:51,23.3,18.2,1011.7,WNW,296,5.7,9.7,73.3,0.0,,,0.0,,,n/a,2021-09-28T00:34:51Z
2021-09-28 02:39:57,23.1,18.4,1011.7,NW,304,7.4,9.7,74.5,0.0,,,0.0,,,n/a,2021-09-28T00:39:57Z
2021-09-28 02:44:59,23,18.5,1011.6,NW,325,11.1,12.9,75.5,0.0,,,0.0,,,n/a,2021-09-28T00:44:59Z
2021-09-28 02:49:58,23,18.5,1011.6,NW,305,8.4,12.9,76,0.0,,,0.0,,,n/a,2021-09-28T00:49:58Z
2021-09-28 02:54:49,22.9,18.7,1011.6,WNW,302,6,12.9,77,0.0,,,0.0,,,n/a,2021-09-28T00:54:49Z
2021-09-28 02:59:59,22.9,18.9,1011.6,NW,316,9.4,9.7,78.1,0.0,,,0.0,,,n/a,2021-09-28T00:59:59Z
2021-09-28 03:04:49,22.8,19,1011.5,WNW,294,5.8,12.9,79,0.0,,,0.0,,,n/a,2021-09-28T01:04:49Z
2021-09-28 03:09:54,22.8,19.2,1011.6,WNW,290,3.1,6.4,79.7,0.0,,,0.0,,,n/a,2021-09-28T01:09:54Z
2021-09-28 03:14:56,22.8,19.3,1011.5,WNW,286,5.4,6.4,80.4,0.0,,,0.0,,,n/a,2021-09-28T01:14:56Z
2021-09-28 03:19:54,22.8,19.4,1011.5,WNW,290,6.4,6.4,81,0.0,,,0.0,,,n/a,2021-09-28T01:19:54Z
2021-09-28 03:24:57,22.8,19.4,1011.4,WNW,291,7.2,9.7,81.1,0.0,,,0.0,,,n/a,2021-09-28T01:24:57Z
2021-09-28 03:29:56,22.8,19.6,1011.4,WNW,288,3.5,9.7,82,0.0,,,0.0,,,n/a,2021-09-28T01:29:56Z
2021-09-28 03:34:53,22.7,19.5,1011.4,WNW,288,5.4,4.8,82,0.0,,,0.0,,,n/a,2021-09-28T01:34:53Z
2021-09-28 03:39:57,22.7,19.5,1011.4,WNW,289,1.3,6.4,82,0.0,,,0.0,,,n/a,2021-09-28T01:39:57Z
2021-09-28 03:44:58,22.8,19.6,1011.3,NW,310,11.2,10.1,82,0.0,,,0.0,,,n/a,2021-09-28T01:44:58Z
2021-09-28 03:49:56,22.9,19.6,1011.3,NW,318,7.8,12.9,81.6,0.0,,,0.0,,,n/a,2021-09-28T01:49:56Z
2021-09-28 03:54:57,23,19.5,1011.3,NNW,328,8.9,14.5,81,0.0,,,0.0,,,n/a,2021-09-28T01:54:57Z
2021-09-28 03:59:54,23,19.6,1011.3,NNW,331,6.6,11.3,81,0.0,,,0.0,,,n/a,2021-09-28T01:59:54Z
2021-09-28 04:04:55,23.1,19.4,1011.2,North,358,8.3,8,80.2,0.0,,,0.0,,,n/a,2021-09-28T02:04:55Z
2021-09-28 04:09:48,23.1,19.4,1011.2,NW,320,6.1,11.3,80,0.0,,,0.0,,,n/a,2021-09-28T02:09:48Z
2021-09-28 04:14:49,23.1,19.4,1011.1,NNW,327,9.3,9,80,0.0,,,0.0,,,n/a,2021-09-28T02:14:49Z
2021-09-28 04:19:58,23.1,19.4,1011.1,NNW,332,11.5,12.9,80,0.0,,,0.0,,,n/a,2021-09-28T02:19:58Z
2021-09-28 04:24:48,23.1,19.3,1011.1,NNW,344,11.8,14.5,79.4,0.0,,,0.0,,,n/a,2021-09-28T02:24:48Z
2021-09-28 04:29:58,23.1,19.3,1011.0,NNW,327,11.4,14.5,79,0.0,,,0.0,,,n/a,2021-09-28T02:29:58Z
2021-09-28 04:34:54,23.1,19.2,1011.0,North,354,8,12.9,79,0.0,,,0.0,,,n/a,2021-09-28T02:34:54Z
2021-09-28 04:39:59,23.1,19.2,1011.0,North,7,6,9.7,79,0.0,,,0.0,,,n/a,2021-09-28T02:39:59Z
2021-09-28 04:44:49,23.1,19.2,1011.1,North,356,6.2,9.7,78.9,0.0,,,0.0,,,n/a,2021-09-28T02:44:49Z
2021-09-28 04:49:59,23.1,19,1011.1,NW,323,14.5,14.5,78.1,0.0,,,0.0,,,n/a,2021-09-28T02:49:59Z
2021-09-28 04:54:49,23.1,19,1011.1,NW,326,12.7,19.3,78,0.0,,,0.0,,,n/a,2021-09-28T02:54:49Z
2021-09-28 04:59:59,23,19,1011.1,North,0,11.2,14.5,78,0.0,,,0.0,,,n/a,2021-09-28T02:59:59Z
2021-09-28 05:04:48,23,18.9,1011.0,NW,310,7.9,14.5,78,0.0,,,0.0,,,n/a,2021-09-28T03:04:48Z
2021-09-28 05:09:54,22.9,18.8,1011.0,NNW,340,8.3,11.3,77.8,0.0,,,0.0,,,n/a,2021-09-28T03:09:54Z
2021-09-28 05:14:59,22.9,18.7,1011.0,North,11,6.4,12.9,77,0.0,,,0.0,,,n/a,2021-09-28T03:14:59Z
2021-09-28 05:19:52,22.9,18.7,1010.9,North,352,5.6,8,77,0.0,,,0.0,,,n/a,2021-09-28T03:19:52Z
2021-09-28 05:24:53,22.9,18.6,1010.9,NNW,328,7.2,7.2,76.8,0.0,,,0.0,,,n/a,2021-09-28T03:24:53Z
2021-09-28 05:29:52,22.9,18.6,1010.9,West,277,6.8,9.7,76.3,0.0,,,0.0,,,n/a,2021-09-28T03:29:52Z
2021-09-28 05:34:50,22.9,18.5,1011.0,WNW,290,9.5,11.3,76,0.0,,,0.0,,,n/a,2021-09-28T03:34:50Z
2021-09-28 05:39:55,22.9,18.5,1011.0,West,281,9.8,12.9,76,0.0,,,0.0,,,n/a,2021-09-28T03:39:55Z
2021-09-28 05:44:58,22.9,18.6,1011.0,WNW,296,9,11.3,76.4,0.0,,,0.0,,,n/a,2021-09-28T03:44:58Z
2021-09-28 05:49:56,22.9,18.5,1011.0,WNW,299,10.6,10.9,76.1,0.0,,,0.0,,,n/a,2021-09-28T03:49:56Z
2021-09-28 05:54:57,22.9,18.2,1011.0,NNW,327,8.7,14.5,75.1,0.0,,,0.0,,,n/a,2021-09-28T03:54:57Z
2021-09-28 05:59:56,22.9,18.1,1011.0,NNW,327,9.4,12.9,74.7,0.0,,,0.0,,,n/a,2021-09-28T03:59:56Z
2021-09-28 06:04:58,22.8,18.2,1011.0,NW,322,12.6,12.9,75,0.0,,,0.0,,,n/a,2021-09-28T04:04:58Z
2021-09-28 06:09:53,22.8,18.1,1011.0,NW,323,14.4,14.5,74.8,0.0,,,0.0,,,n/a,2021-09-28T04:09:53Z
2021-09-28 06:14:56,22.9,18,1011.0,NW,323,16.4,17.7,74,0.0,,,0.0,,,n/a,2021-09-28T04:14:56Z
2021-09-28 06:19:54,22.9,18,1011.0,NW,325,14.5,19.3,74,0.0,,,0.0,,,n/a,2021-09-28T04:19:54Z
2021-09-28 06:24:53,22.8,18.1,1011.1,NW,325,9.9,16.1,74.6,0.0,,,0.0,,,n/a,2021-09-28T04:24:53Z
2021-09-28 06:29:50,22.8,18.2,1011.1,NNW,327,10.9,10,75,0.0,,,0.0,,,n/a,2021-09-28T04:29:50Z
2021-09-28 06:34:50,22.8,18.1,1011.2,WNW,289,13.1,19.3,75,0.0,,,0.0,,,n/a,2021-09-28T04:34:50Z
2021-09-28 06:39:55,22.8,18.1,1011.1,NW,317,10.9,19.3,75,0.0,,,0.0,,,n/a,2021-09-28T04:39:55Z
2021-09-28 06:44:59,22.8,18.1,1011.1,NW,314,7.3,14.5,75,0.0,,,0.0,,,n/a,2021-09-28T04:44:59Z
2021-09-28 06:49:56,22.8,18.1,1011.1,NNW,331,7,9.7,75,0.0,,,0.0,,,n/a,2021-09-28T04:49:56Z
2021-09-28 06:54:59,22.8,18.1,1011.1,NW,305,7.2,8,75,0.0,,,0.0,,,n/a,2021-09-28T04:54:59Z
2021-09-28 06:59:56,22.8,18.1,1011.2,WNW,296,5.6,9.7,75,0.0,,,0.0,,,n/a,2021-09-28T04:59:56Z
2021-09-28 07:04:58,22.8,18.1,1011.3,WNW,290,5.6,6.4,75,0.0,,,0.0,,,n/a,2021-09-28T05:04:58Z
2021-09-28 07:09:52,22.8,18.2,1011.4,West,281,7.4,5.6,75,0.0,,,0.0,,,n/a,2021-09-28T05:09:52Z
2021-09-28 07:14:55,22.8,18.1,1011.4,West,280,5.8,9.7,74.6,0.0,,,0.0,,,n/a,2021-09-28T05:14:55Z
2021-09-28 07:19:52,22.9,18.2,1011.5,West,280,5.4,6.4,74.8,0.0,,,0.0,,,n/a,2021-09-28T05:19:52Z
2021-09-28 07:24:50,22.9,18.2,1011.5,West,280,4,4.8,75,0.0,,,0.0,,,n/a,2021-09-28T05:24:50Z
2021-09-28 07:29:58,22.9,18.2,1011.5,West,280,1.6,1.8,75,0.0,,,0.0,,,n/a,2021-09-28T05:29:58Z
2021-09-28 07:34:54,22.9,18,1011.5,WNW,298,5.8,6.4,74,0.0,,,0.0,,,n/a,2021-09-28T05:34:54Z
2021-09-28 07:39:59,22.9,18.1,1011.6,North,355,5.8,6.4,74,0.0,,,0.0,,,n/a,2021-09-28T05:39:59Z
2021-09-28 07:44:49,23,18.1,1011.6,NNE,13,5.2,6.4,74,0.0,,,0.0,,,n/a,2021-09-28T05:44:49Z
2021-09-28 07:49:58,23,17.9,1011.6,North,0,6.6,7.2,73,0.0,,,0.0,,,n/a,2021-09-28T05:49:58Z
2021-09-28 07:54:58,23.1,18,1011.6,NNW,339,7,11.3,73,0.0,,,0.0,,,n/a,2021-09-28T05:54:58Z
2021-09-28 07:59:56,23.1,17.9,1011.7,NNW,328,6.9,8,72.7,0.0,,,0.0,,,n/a,2021-09-28T05:59:56Z
2021-09-28 08:04:56,23.1,17.8,1011.8,North,7,8.6,8,72,0.0,,,0.0,,,n/a,2021-09-28T06:04:56Z
2021-09-28 08:09:50,23.2,17.8,1011.8,North,10,4.9,11.3,72,0.0,,,0.0,,,n/a,2021-09-28T06:09:50Z
2021-09-28 08:14:50,23.3,17.8,1011.8,NW,325,2.6,5.6,71.6,0.0,,,0.0,,,n/a,2021-09-28T06:14:50Z
2021-09-28 08:19:59,23.3,17.6,1011.9,NNW,331,9.2,9.7,70.2,0.0,,,0.0,,,n/a,2021-09-28T06:19:59Z
2021-09-28 08:24:49,23.3,17.5,1012.0,North,3,7,9.7,70,0.0,,,0.0,,,n/a,2021-09-28T06:24:49Z
2021-09-28 08:29:58,23.4,17.6,1012.0,NW,312,5.7,8,70,0.0,,,0.0,,,n/a,2021-09-28T06:29:58Z
2021-09-28 08:34:54,23.5,17.6,1012.1,North,355,4.8,9.7,69.3,0.0,,,0.0,,,n/a,2021-09-28T06:34:54Z
2021-09-28 08:39:59,23.6,17.6,1012.2,NW,319,7.3,6.6,69,0.0,,,0.0,,,n/a,2021-09-28T06:39:59Z
2021-09-28 08:44:49,23.6,17.5,1012.3,NNW,347,6.4,11.3,68.6,0.0,,,0.0,,,n/a,2021-09-28T06:44:49Z
2021-09-28 08:49:57,23.6,17.4,1012.3,WNW,290,0,0,68,0.0,,,0.0,,,n/a,2021-09-28T06:49:57Z
2021-09-28 08:54:59,23.7,17.4,1012.3,North,352,3.4,5,67.8,0.0,,,0.0,,,n/a,2021-09-28T06:54:59Z
2021-09-28 08:59:56,23.8,17.3,1012.3,North,358,5.9,6.4,67,0.0,,,0.0,,,n/a,2021-09-28T06:59:56Z
2021-09-28 09:04:56,23.9,17.4,1012.3,North,360,0.3,8,67,0.0,,,0.0,,,n/a,2021-09-28T07:04:56Z
2021-09-28 09:09:50,24.1,17.5,1012.3,NE,45,3.7,3.5,66.6,0.0,,,0.0,,,n/a,2021-09-28T07:09:50Z
2021-09-28 09:14:53,24.3,17.5,1012.4,NNE,15,3,4.8,66,0.0,,,0.0,,,n/a,2021-09-28T07:14:53Z
2021-09-28 09:19:50,24.3,17.5,1012.4,North,350,0,4.8,66,0.0,,,0.0,,,n/a,2021-09-28T07:19:50Z
2021-09-28 09:24:52,24.4,17.9,1012.4,West,278,0,0,67,0.0,,,0.0,,,n/a,2021-09-28T07:24:52Z
2021-09-28 09:29:51,24.1,18.2,1012.4,WNW,291,0,0,69.6,0.0,,,0.0,,,n/a,2021-09-28T07:29:51Z
2021-09-28 09:34:48,23.9,18.3,1012.4,WNW,288,2.1,4.8,70.9,0.0,,,0.0,,,n/a,2021-09-28T07:34:48Z
2021-09-28 09:39:53,23.9,18.2,1012.5,West,267,0,4.8,70.7,0.0,,,0.0,,,n/a,2021-09-28T07:39:53Z
2021-09-28 09:44:56,23.8,18.5,1012.5,WSW,253,0,0,71.8,0.0,,,0.0,,,n/a,2021-09-28T07:44:56Z
2021-09-28 09:49:53,23.9,18.5,1012.5,West,271,0,0,71.7,0.0,,,0.0,,,n/a,2021-09-28T07:49:53Z
2021-09-28 09:54:55,24,18.5,1012.5,West,271,0.6,0.3,71.6,0.0,,,0.0,,,n/a,2021-09-28T07:54:55Z
2021-09-28 09:59:53,24.2,18.3,1012.5,West,271,0.2,1.6,69.7,0.0,,,0.0,,,n/a,2021-09-28T07:59:53Z
2021-09-28 10:04:55,24.4,18.4,1012.6,ENE,64,0.6,3.2,69.2,0.0,,,0.0,,,n/a,2021-09-28T08:04:55Z
2021-09-28 10:09:49,24.5,18.6,1012.6,ESE,123,0,0,69.3,0.0,,,0.0,,,n/a,2021-09-28T08:09:49Z
2021-09-28 10:14:52,24.8,18.4,1012.6,NNW,335,0.5,0,67.5,0.0,,,0.0,,,n/a,2021-09-28T08:14:52Z
2021-09-28 10:19:49,25,17.9,1012.6,North,360,0,1.6,64.7,0.0,,,0.0,,,n/a,2021-09-28T08:19:49Z
2021-09-28 10:24:48,25.1,17.8,1012.6,WNW,303,0,0,64,0.0,,,0.0,,,n/a,2021-09-28T08:24:48Z
2021-09-28 10:29:57,25.2,17.8,1012.5,NNW,335,5.6,6.1,63.4,0.0,,,0.0,,,n/a,2021-09-28T08:29:57Z
2021-09-28 10:34:53,25.4,17.8,1012.5,NNW,334,3.3,11.3,63,0.0,,,0.0,,,n/a,2021-09-28T08:34:53Z
2021-09-28 10:39:57,25.6,18,1012.5,NW,319,0,8,62.7,0.0,,,0.0,,,n/a,2021-09-28T08:39:57Z
2021-09-28 10:44:59,25.7,17.7,1012.4,NW,319,0,0,61.6,0.0,,,0.0,,,n/a,2021-09-28T08:44:59Z
2021-09-28 10:49:57,25.6,17.6,1012.3,NNW,329,6.6,5.1,61,0.0,,,0.0,,,n/a,2021-09-28T08:49:57Z
2021-09-28 10:54:55,25.7,17.5,1012.4,NNW,330,3,14.5,60.6,0.0,,,0.0,,,n/a,2021-09-28T08:54:55Z
2021-09-28 10:59:53,25.9,17.5,1012.4,North,360,0,4.8,59.8,0.0,,,0.0,,,n/a,2021-09-28T08:59:53Z
2021-09-28 11:04:53,26,17.5,1012.4,WNW,301,0,0,59.3,0.0,,,0.0,,,n/a,2021-09-28T09:04:53Z
2021-09-28 11:09:58,26.2,17.8,1012.3,ENE,63,0,0,59.7,0.0,,,0.0,,,n/a,2021-09-28T09:09:58Z
2021-09-28 11:14:59,26.5,17.8,1012.3,East,89,0,0,59.2,0.0,,,0.0,,,n/a,2021-09-28T09:14:59Z
2021-09-28 11:19:57,26.8,18.1,1012.2,ESE,111,0,0,58.8,0.0,,,0.0,,,n/a,2021-09-28T09:19:57Z
2021-09-28 11:24:57,27.1,18,1012.2,SW,216,0,0,57.6,0.0,,,0.0,,,n/a,2021-09-28T09:24:57Z
2021-09-28 11:29:55,27.2,18.1,1012.2,NNW,342,0,0,57.6,0.0,,,0.0,,,n/a,2021-09-28T09:29:55Z
2021-09-28 11:34:52,26.8,18,1012.1,NNW,346,12.8,15.8,58.4,0.0,,,0.0,,,n/a,2021-09-28T09:34:52Z
2021-09-28 11:39:57,26.6,17.9,1012.0,NNW,338,13.1,19.3,58.8,0.0,,,0.0,,,n/a,2021-09-28T09:39:57Z
2021-09-28 11:44:59,26.6,17.7,1012.0,NNW,328,10.9,19.3,58.2,0.0,,,0.0,,,n/a,2021-09-28T09:44:59Z
2021-09-28 11:49:57,26.8,17.6,1012.1,North,6,1.7,16.1,57.1,0.0,,,0.0,,,n/a,2021-09-28T09:49:57Z
2021-09-28 11:54:49,26.9,17.7,1012.1,NE,50,4.7,3.1,56.9,0.0,,,0.0,,,n/a,2021-09-28T09:54:49Z
2021-09-28 11:59:58,27.1,17.4,1012.1,NNW,332,2,8,55.4,0.0,,,0.0,,,n/a,2021-09-28T09:59:58Z
2021-09-28 12:04:49,27.1,17.2,1012.0,NW,325,12.1,8.4,55,0.0,,,0.0,,,n/a,2021-09-28T10:04:49Z
2021-09-28 12:09:54,27.2,17.2,1012.0,NW,317,13.6,16.1,54.4,0.0,,,0.0,,,n/a,2021-09-28T10:09:54Z
2021-09-28 12:14:58,27.3,17.3,1012.0,NNW,344,15,19.3,54.2,0.0,,,0.0,,,n/a,2021-09-28T10:14:58Z
2021-09-28 12:19:56,27.3,17.2,1012.0,NNW,337,8.1,19.3,54,0.0,,,0.0,,,n/a,2021-09-28T10:19:56Z
2021-09-28 12:24:59,27.4,17,1012.0,North,9,10.9,19.3,53.3,0.0,,,0.0,,,n/a,2021-09-28T10:24:59Z
2021-09-28 12:29:57,27.6,16.9,1012.1,North,0,10.7,14.5,52.4,0.0,,,0.0,,,n/a,2021-09-28T10:29:57Z
2021-09-28 12:34:54,27.6,16.9,1012.0,North,2,5.6,14.5,52,0.0,,,0.0,,,n/a,2021-09-28T10:34:54Z
2021-09-28 12:39:48,27.7,16.9,1012.0,WNW,288,0,14.5,52,0.0,,,0.0,,,n/a,2021-09-28T10:39:48Z
2021-09-28 12:44:51,27.7,17.2,1012.1,North,357,4.7,8.9,52.9,0.0,,,0.0,,,n/a,2021-09-28T10:44:51Z
2021-09-28 12:49:50,27.7,17.5,1012.1,NNW,342,13.8,19.3,54,0.0,,,0.0,,,n/a,2021-09-28T10:49:50Z
2021-09-28 12:54:53,27.7,17.5,1012.1,NNW,336,19.4,19.3,54,0.0,,,0.0,,,n/a,2021-09-28T10:54:53Z
2021-09-28 12:59:51,27.5,17.4,1012.1,North,350,8.3,24.1,54,0.0,,,0.0,,,n/a,2021-09-28T10:59:51Z
2021-09-28 13:04:55,27.5,17.4,1012.1,NNW,348,0,14.5,54,0.0,,,0.0,,,n/a,2021-09-28T11:04:55Z
2021-09-28 13:09:48,27.6,17.4,1012.1,NW,317,0,0,54,0.0,,,0.0,,,n/a,2021-09-28T11:09:48Z
2021-09-28 13:14:51,27.6,17.4,1012.1,North,11,0,0,54,0.0,,,0.0,,,n/a,2021-09-28T11:14:51Z
2021-09-28 13:19:50,27.5,17.4,1012.1,ENE,60,0,0,54,0.0,,,0.0,,,n/a,2021-09-28T11:19:50Z
2021-09-28 13:24:52,27.4,17.5,1012.1,North,354,5.2,2.4,54.5,0.0,,,0.0,,,n/a,2021-09-28T11:24:52Z
2021-09-28 13:29:51,27.3,17.6,1012.1,WNW,298,5.2,11.3,55.5,0.0,,,0.0,,,n/a,2021-09-28T11:29:51Z
2021-09-28 13:34:49,27.2,17.8,1012.1,NNW,340,15.2,19.3,56.5,0.0,,,0.0,,,n/a,2021-09-28T11:34:49Z
2021-09-28 13:39:55,27.1,17.8,1012.1,NNW,347,10.1,16.1,57,0.0,,,0.0,,,n/a,2021-09-28T11:39:55Z
2021-09-28 13:44:57,27.2,17.9,1012.0,North,4,9.4,14.5,57,0.0,,,0.0,,,n/a,2021-09-28T11:44:57Z
2021-09-28 13:49:56,27.3,18,1012.0,North,9,12.9,12.9,57,0.0,,,0.0,,,n/a,2021-09-28T11:49:56Z
2021-09-28 13:54:58,27.1,18,1012.0,NNW,333,17.5,24.1,57.6,0.0,,,0.0,,,n/a,2021-09-28T11:54:58Z
2021-09-28 13:59:56,27.1,18,1012.0,North,2,14.4,19.3,57.6,0.0,,,0.0,,,n/a,2021-09-28T11:59:56Z
2021-09-28 14:04:56,27,17.9,1012.0,NNW,332,15.5,16.1,57.5,0.0,,,0.0,,,n/a,2021-09-28T12:04:56Z
2021-09-28 14:09:51,27,18,1011.9,NW,317,13.5,19.3,58,0.0,,,0.0,,,n/a,2021-09-28T12:09:51Z
2021-09-28 14:14:52,26.9,18,1012.0,NNW,342,16.2,22.5,58,0.0,,,0.0,,,n/a,2021-09-28T12:14:52Z
2021-09-28 14:19:50,26.9,17.9,1011.9,NNW,342,13.7,17.7,58,0.0,,,0.0,,,n/a,2021-09-28T12:19:50Z
2021-09-28 14:24:51,26.9,17.9,1011.9,NW,313,14.1,19.3,58,0.0,,,0.0,,,n/a,2021-09-28T12:24:51Z
2021-09-28 14:29:49,26.9,18.1,1011.9,NNE,18,13.7,16.1,58.5,0.0,,,0.0,,,n/a,2021-09-28T12:29:49Z
2021-09-28 14:34:56,27,18.1,1011.9,North,352,16.1,19.3,58.3,0.0,,,0.0,,,n/a,2021-09-28T12:34:56Z
2021-09-28 14:39:50,27,18.1,1011.8,NNE,15,14.9,19.3,58,0.0,,,0.0,,,n/a,2021-09-28T12:39:50Z
2021-09-28 14:44:50,27.3,18.1,1011.8,NNE,15,11.6,19.3,57.4,0.0,,,0.0,,,n/a,2021-09-28T12:44:50Z